Time;durP1;ratioP1;P1;durP2;ratioP2;P2;SDS_P1;SDS_P2;PMS_P1;PMS_P2;Temp;Humidity;BMP_temperature;BMP_pressure;BME280_temperature;BME280_humidity;BME280_pressure;Samples;Min_cycle;Max_cycle;Signal;HPM_P1;HPM_P2
2022/04/29 00:02:09;;;;;;;23.02;13.48;;;;;;;8.47;71.37;100500.75;5006128;28;20408;-54
2022/04/29 00:04:35;;;;;;;30.63;13.52;;;;;;;8.37;72.29;100498.41;5003692;28;20393;-51
2022/04/29 00:07:00;;;;;;;24.23;13.50;;;;;;;8.27;72.99;100511.28;4994145;28;20042;-50
2022/04/29 00:09:26;;;;;;;24.90;14.25;;;;;;;8.06;74.92;100514.00;4998598;28;20058;-51
2022/04/29 00:11:52;;;;;;;23.92;13.32;;;;;;;7.84;76.38;100516.75;4994951;28;20089;-53
2022/04/29 00:14:18;;;;;;;23.55;14.13;;;;;;;7.72;77.40;100516.44;4991244;28;20065;-50
2022/04/29 00:16:43;;;;;;;23.17;12.93;;;;;;;7.51;78.60;100519.94;4998461;28;20034;-52
2022/04/29 00:19:09;;;;;;;24.13;13.45;;;;;;;7.33;79.67;100514.22;4998364;28;20049;-51
2022/04/29 00:21:34;;;;;;;23.20;13.05;;;;;;;7.43;78.15;100514.72;4994778;28;20050;-50
2022/04/29 00:24:00;;;;;;;24.15;12.93;;;;;;;7.65;76.45;100506.72;4999989;28;20041;-52
2022/04/29 00:26:25;;;;;;;25.88;13.02;;;;;;;7.59;76.66;100502.13;4995922;28;20054;-52
2022/04/29 00:28:51;;;;;;;26.90;13.23;;;;;;;7.51;77.69;100501.28;4997463;28;20032;-51
2022/04/29 00:31:16;;;;;;;22.70;13.10;;;;;;;7.57;77.00;100487.16;4996969;28;20105;-54
2022/04/29 00:33:42;;;;;;;24.70;13.30;;;;;;;7.69;76.04;100491.97;4997957;28;20022;-50
2022/04/29 00:36:07;;;;;;;26.55;13.55;;;;;;;7.72;75.31;100502.25;4995871;28;20041;-52
2022/04/29 00:38:33;;;;;;;21.42;13.45;;;;;;;7.69;75.74;100497.31;4989394;28;20034;-52
2022/04/29 00:40:58;;;;;;;28.88;14.32;;;;;;;7.70;74.97;100493.63;4998130;28;20052;-51
2022/04/29 00:43:23;;;;;;;28.27;13.82;;;;;;;7.88;74.80;100485.94;4998386;28;20361;-53
2022/04/29 00:45:50;;;;;;;24.77;14.10;;;;;;;7.78;74.95;100480.94;4992763;28;20385;-53
2022/04/29 00:48:16;;;;;;;23.48;13.75;;;;;;;7.74;75.65;100478.88;4990627;28;20022;-53
2022/04/29 00:50:41;;;;;;;21.33;12.75;;;;;;;7.69;76.09;100478.63;4995979;28;20049;-50
2022/04/29 00:53:07;;;;;;;24.15;13.60;;;;;;;7.72;77.88;100481.72;4991330;28;20058;-54
2022/04/29 00:55:32;;;;;;;25.42;14.02;;;;;;;7.65;78.52;100474.69;4999474;28;20417;-53
2022/04/29 00:58:13;;;;;;;32.60;13.75;;;;;;;7.51;77.61;100479.94;4995023;28;20376;-52
2022/04/29 01:00:39;;;;;;;27.85;13.98;;;;;;;7.39;77.96;100478.78;4994812;28;20046;-53
2022/04/29 01:03:04;;;;;;;26.67;12.98;;;;;;;7.44;80.11;100473.72;4992456;28;20080;-53
2022/04/29 01:05:33;;;;;;;24.40;12.93;;;;;;;7.40;80.27;100477.75;4996893;28;20046;-51
2022/04/29 01:07:58;;;;;;;21.67;13.20;;;;;;;7.31;79.16;100478.91;4993847;28;20045;-51
2022/04/29 01:10:24;;;;;;;18.70;12.27;;;;;;;7.40;82.02;100482.28;4993979;28;20042;-51
2022/04/29 01:12:54;;;;;;;30.13;14.82;;;;;;;7.25;79.37;100475.16;4996846;28;20358;-53
2022/04/29 01:15:20;;;;;;;22.40;12.15;;;;;;;7.48;82.02;100472.28;4988191;28;20770;-51
2022/04/29 01:17:50;;;;;;;22.75;14.48;;;;;;;7.30;79.51;100474.59;4992818;28;20366;-52
2022/04/29 01:20:17;;;;;;;;;;;;;;;7.44;79.48;100479.03;5003452;28;20065;-50
2022/04/29 01:22:43;;;;;;;24.98;13.23;;;;;;;7.48;78.97;100474.13;4993835;28;20434;-49
2022/04/29 01:25:09;;;;;;;31.00;14.20;;;;;;;7.48;78.06;100469.63;4991049;28;20027;-51
2022/04/29 01:27:34;;;;;;;27.17;13.90;;;;;;;7.48;77.66;100464.28;4993191;28;20029;-50
2022/04/29 01:30:08;;;;;;;26.40;14.48;;;;;;;7.51;78.27;100463.91;4989211;28;20690;-51
2022/04/29 01:32:34;;;;;;;27.45;12.45;;;;;;;7.52;80.23;100472.75;4988096;28;20058;-50
2022/04/29 01:34:59;;;;;;;23.25;14.23;;;;;;;7.40;78.85;100461.75;4989340;28;20039;-52
2022/04/29 01:37:25;;;;;;;25.05;13.70;;;;;;;7.38;78.83;100463.78;4993583;28;20068;-54
2022/04/29 01:39:50;;;;;;;26.08;13.10;;;;;;;7.44;80.89;100457.69;4993071;28;20034;-49
2022/04/29 01:42:16;;;;;;;25.45;13.98;;;;;;;7.40;79.52;100461.75;4995729;28;20038;-50
2022/04/29 01:44:42;;;;;;;25.98;13.38;;;;;;;7.36;80.16;100457.81;4997187;28;20224;-51
2022/04/29 01:47:07;;;;;;;20.70;12.20;;;;;;;7.32;81.12;100457.38;4986181;28;20053;-51
2022/04/29 01:49:33;;;;;;;24.70;13.00;;;;;;;7.23;81.82;100460.38;4995672;28;20376;-53
2022/04/29 01:51:59;;;;;;;23.08;13.57;;;;;;;7.19;81.43;100459.06;4996429;28;20528;-51
2022/04/29 01:54:25;;;;;;;27.27;14.50;;;;;;;7.18;80.77;100455.59;4994450;28;20049;-50
2022/04/29 01:56:52;;;;;;;23.83;14.27;;;;;;;7.07;81.34;100451.59;4990744;28;20038;-51
2022/04/29 01:59:18;;;;;;;29.45;13.68;;;;;;;7.12;81.53;100457.19;4972363;28;20038;-52
2022/04/29 02:01:44;;;;;;;24.80;14.18;;;;;;;7.15;81.18;100455.16;4991500;28;20473;-53
2022/04/29 02:04:09;;;;;;;28.10;13.73;;;;;;;7.12;81.85;100448.38;5001561;28;20034;-53
2022/04/29 02:06:37;;;;;;;28.70;14.60;;;;;;;7.11;81.52;100447.56;4992125;28;20117;-51
2022/04/29 02:09:03;;;;;;;20.48;13.13;;;;;;;7.17;82.07;100450.47;4990674;28;20117;-52
2022/04/29 02:11:28;;;;;;;26.95;14.00;;;;;;;7.09;81.98;100454.91;4993206;28;20572;-54
2022/04/29 02:13:54;;;;;;;29.95;15.13;;;;;;;7.29;81.33;100443.63;4990914;28;20048;-51
2022/04/29 02:16:19;;;;;;;24.80;13.80;;;;;;;7.15;81.35;100441.84;4994396;28;20058;-53
2022/04/29 02:18:45;;;;;;;30.33;13.45;;;;;;;7.13;81.33;100439.34;4988825;28;20026;-53
2022/04/29 02:21:10;;;;;;;25.92;14.20;;;;;;;7.19;81.58;100435.06;4995182;28;20104;-53
2022/04/29 02:23:36;;;;;;;28.95;14.63;;;;;;;7.13;82.35;100429.50;4994211;28;20457;-50
2022/04/29 02:26:01;;;;;;;27.38;13.93;;;;;;;7.11;81.92;100438.69;4990645;28;20053;-51
2022/04/29 02:28:31;;;;;;;26.38;14.52;;;;;;;7.09;82.26;100433.59;4998892;28;20030;-52
2022/04/29 02:30:56;;;;;;;25.55;15.13;;;;;;;6.99;82.57;100433.06;4987815;28;20034;-52
2022/04/29 02:33:22;;;;;;;26.65;15.45;;;;;;;7.05;82.78;100426.97;4995285;28;20502;-52
2022/04/29 02:35:48;;;;;;;30.60;16.10;;;;;;;6.96;82.81;100427.28;4996949;28;20105;-52
2022/04/29 02:38:15;;;;;;;27.75;14.85;;;;;;;6.89;83.38;100427.22;4990191;28;20030;-51
2022/04/29 02:40:40;;;;;;;27.70;14.30;;;;;;;6.98;83.86;100428.72;4994078;28;20046;-52
2022/04/29 02:43:06;;;;;;;24.48;13.77;;;;;;;7.08;84.61;100425.75;4994817;28;20056;-50
2022/04/29 02:45:32;;;;;;;24.92;14.95;;;;;;;7.07;83.83;100419.59;4987847;28;20046;-50
2022/04/29 02:47:58;;;;;;;28.08;15.40;;;;;;;7.16;82.99;100417.63;4994516;28;20029;-53
2022/04/29 02:50:23;;;;;;;32.40;14.82;;;;;;;7.34;83.59;100411.84;4994271;28;20137;-51
2022/04/29 02:52:48;;;;;;;27.58;14.43;;;;;;;7.27;83.32;100417.13;4996596;28;20540;-50
2022/04/29 02:55:14;;;;;;;30.13;14.73;;;;;;;6.96;82.44;100417.44;4996285;28;20322;-50
2022/04/29 02:57:39;;;;;;;29.58;15.77;;;;;;;6.82;83.35;100410.34;4996233;28;20453;-53
2022/04/29 03:00:06;;;;;;;25.63;15.18;;;;;;;6.81;84.85;100408.66;4987853;28;20045;-51
2022/04/29 03:02:31;;;;;;;30.85;16.40;;;;;;;6.73;84.52;100406.13;4988590;28;20034;-53
2022/04/29 03:04:56;;;;;;;30.13;15.48;;;;;;;6.69;84.86;100409.19;4992382;28;20031;-53
2022/04/29 03:07:22;;;;;;;26.02;14.35;;;;;;;6.71;86.92;100411.63;4992987;28;20033;-53
2022/04/29 03:09:48;;;;;;;28.85;15.27;;;;;;;6.37;85.92;100401.63;4987674;28;20042;-51
2022/04/29 03:12:14;;;;;;;31.70;16.23;;;;;;;6.26;87.18;100406.41;4994059;28;20377;-50
2022/04/29 03:14:40;;;;;;;30.67;16.25;;;;;;;6.34;86.87;100399.31;4991136;28;20465;-53
2022/04/29 03:17:05;;;;;;;22.73;14.30;;;;;;;6.43;88.20;100401.69;4987804;28;20050;-54
2022/04/29 03:19:31;;;;;;;36.13;16.10;;;;;;;6.41;86.85;100394.91;4994818;28;20026;-55
2022/04/29 03:21:56;;;;;;;35.30;17.33;;;;;;;6.42;87.04;100394.72;4994332;28;20374;-50
2022/04/29 03:24:22;;;;;;;31.15;16.90;;;;;;;6.48;87.13;100396.63;4987178;28;20333;-50
2022/04/29 03:26:47;;;;;;;29.27;16.65;;;;;;;6.74;85.92;100391.78;4991197;28;20447;-52
2022/04/29 03:29:13;;;;;;;25.48;15.68;;;;;;;6.82;85.34;100391.69;4995353;28;20037;-51
2022/04/29 03:31:38;;;;;;;29.60;15.93;;;;;;;6.67;85.03;100400.53;4995836;28;20042;-51
2022/04/29 03:34:03;;;;;;;30.15;15.77;;;;;;;6.56;85.55;100390.34;4993371;28;20031;-52
2022/04/29 03:36:29;;;;;;;29.48;16.58;;;;;;;6.39;86.21;100391.59;4999303;28;20041;-51
2022/04/29 03:38:55;;;;;;;33.50;15.05;;;;;;;6.20;87.76;100387.69;4996360;28;20294;-52
2022/04/29 03:41:20;;;;;;;30.45;16.40;;;;;;;6.20;87.85;100383.19;4995660;28;20050;-52
2022/04/29 03:43:46;;;;;;;31.48;17.17;;;;;;;6.21;87.44;100398.13;4996624;28;20023;-50
2022/04/29 03:46:11;;;;;;;27.40;15.73;;;;;;;6.19;88.18;100396.66;4994557;28;20409;-52
2022/04/29 03:51:21;;;;;;;31.95;17.95;;;;;;;6.42;87.68;100391.25;5001029;28;20045;-50
2022/04/29 03:53:48;;;;;;;33.40;17.55;;;;;;;6.28;87.81;100387.59;4992014;28;20018;-50
2022/04/29 03:56:15;;;;;;;33.30;16.77;;;;;;;6.59;87.02;100386.50;4989798;28;20088;-51
2022/04/29 03:58:40;;;;;;;35.72;17.88;;;;;;;6.62;86.07;100394.94;5000305;28;20034;-50
2022/04/29 04:01:06;;;;;;;32.25;16.30;;;;;;;6.44;86.98;100386.53;4989542;28;20053;-50
2022/04/29 04:03:31;;;;;;;31.27;17.02;;;;;;;6.24;86.87;100387.13;4990878;28;20026;-52
2022/04/29 04:08:41;;;;;;;34.63;17.13;;;;;;;6.14;89.31;100389.25;4998914;28;20092;-51
2022/04/29 04:11:06;;;;;;;28.83;15.98;;;;;;;6.10;88.96;100390.63;5001801;28;20515;-52
2022/04/29 04:13:31;;;;;;;37.55;17.77;;;;;;;6.07;89.12;100391.00;4996269;28;20030;-52
2022/04/29 04:15:57;;;;;;;36.72;18.08;;;;;;;6.11;88.54;100394.94;4994432;28;20096;-53
2022/04/29 04:18:22;;;;;;;34.15;18.20;;;;;;;6.21;87.95;100397.31;4995221;28;20030;-53
2022/04/29 04:20:48;;;;;;;33.10;18.17;;;;;;;6.17;88.12;100393.41;4992605;28;20042;-53
2022/04/29 04:23:14;;;;;;;33.15;18.67;;;;;;;6.20;88.17;100385.03;5000463;28;20030;-52
2022/04/29 04:25:40;;;;;;;29.95;17.38;;;;;;;6.51;87.80;100387.44;4995993;28;20547;-52
2022/04/29 04:28:05;;;;;;;29.92;15.95;;;;;;;6.97;88.03;100387.13;4990530;28;20041;-52
2022/04/29 04:30:31;;;;;;;33.72;17.05;;;;;;;7.23;83.16;100396.38;4992041;28;20039;-52
2022/04/29 04:32:56;;;;;;;32.47;15.63;;;;;;;7.43;85.54;100392.00;4989818;28;20041;-50
2022/04/29 04:35:21;;;;;;;28.73;16.67;;;;;;;7.43;82.03;100400.00;4989406;28;20042;-50
2022/04/29 04:37:48;;;;;;;31.60;16.55;;;;;;;7.83;81.36;100396.81;4983252;28;20033;-53
2022/04/29 04:40:13;;;;;;;43.10;18.70;;;;;;;7.78;79.42;100400.06;4982681;28;20030;-50
2022/04/29 04:42:45;;;;;;;34.70;17.73;;;;;;;7.69;79.71;100401.25;4987151;28;20026;-53
2022/04/29 04:45:11;;;;;;;40.50;18.98;;;;;;;7.40;80.70;100407.59;4987526;28;20050;-51
2022/04/29 04:47:36;;;;;;;43.95;19.67;;;;;;;7.06;82.24;100404.63;4990661;28;20092;-52
2022/04/29 04:50:02;;;;;;;37.47;18.88;;;;;;;6.62;85.24;100408.28;4984364;28;20069;-51
2022/04/29 04:52:27;;;;;;;38.15;19.00;;;;;;;6.12;87.45;100409.91;4998294;28;20026;-50
2022/04/29 04:54:52;;;;;;;32.08;17.10;;;;;;;6.11;88.36;100416.22;4987812;28;20145;-53
2022/04/29 04:57:18;;;;;;;40.15;18.45;;;;;;;6.29;90.38;100415.88;4997700;28;20408;-50
2022/04/29 04:59:43;;;;;;;43.47;18.30;;;;;;;6.25;87.40;100414.59;4994585;28;20030;-50
2022/04/29 05:02:09;;;;;;;32.40;18.13;;;;;;;6.42;87.56;100417.88;4996882;28;20046;-52
2022/04/29 05:04:34;;;;;;;36.92;19.00;;;;;;;6.44;87.34;100418.50;4993595;28;20034;-59
2022/04/29 05:06:59;;;;;;;33.40;17.80;;;;;;;6.57;88.29;100412.53;4994587;28;20049;-54
2022/04/29 05:09:25;;;;;;;36.40;18.63;;;;;;;6.42;86.20;100420.53;4996717;28;20124;-53
2022/04/29 05:11:50;;;;;;;33.13;18.73;;;;;;;6.29;87.20;100423.00;4999170;28;20439;-52
2022/04/29 05:14:16;;;;;;;37.28;17.73;;;;;;;6.32;87.61;100430.66;4989852;28;20125;-51
2022/04/29 05:16:41;;;;;;;34.42;17.83;;;;;;;6.40;88.84;100419.91;4997255;28;20045;-52
2022/04/29 05:19:06;;;;;;;38.45;18.30;;;;;;;6.44;88.24;100426.47;5003248;28;20041;-53
2022/04/29 05:21:32;;;;;;;40.42;19.75;;;;;;;6.62;88.15;100429.59;4993186;28;20046;-51
2022/04/29 05:23:57;;;;;;;33.60;17.73;;;;;;;6.69;86.62;100427.00;4998603;28;20022;-52
2022/04/29 05:26:23;;;;;;;31.80;17.58;;;;;;;6.84;85.88;100435.78;4990126;28;20042;-50
2022/04/29 05:28:48;;;;;;;35.55;17.92;;;;;;;6.76;85.59;100427.06;4997611;28;20042;-53
2022/04/29 05:31:14;;;;;;;36.67;18.05;;;;;;;6.93;85.76;100439.13;4995823;28;20049;-50
2022/04/29 05:33:39;;;;;;;32.28;17.45;;;;;;;7.02;85.22;100432.69;4995002;28;20511;-52
2022/04/29 05:36:05;;;;;;;41.60;18.40;;;;;;;7.18;84.30;100436.09;4977677;28;20058;-50
2022/04/29 05:43:59;;;;;;;37.97;17.90;;;;;;;7.16;84.43;100432.81;4993967;28;20037;-50
2022/04/29 05:46:24;;;;;;;39.25;19.50;;;;;;;7.23;83.86;100436.38;4988812;28;20066;-53
2022/04/29 05:48:50;;;;;;;36.45;18.98;;;;;;;7.46;83.22;100430.81;4989346;28;20408;-51
2022/04/29 05:51:15;;;;;;;34.72;17.83;;;;;;;7.59;82.62;100441.59;4995372;28;20732;-53
2022/04/29 05:53:41;;;;;;;40.60;18.65;;;;;;;7.68;82.03;100437.75;4989429;28;20041;-51
2022/04/29 05:56:06;;;;;;;39.90;19.35;;;;;;;7.75;82.26;100427.16;4996729;28;20061;-52
2022/04/29 05:58:32;;;;;;;44.08;20.85;;;;;;;8.05;81.81;100433.09;4997675;28;20397;-51
2022/04/29 06:00:58;;;;;;;43.75;20.23;;;;;;;8.31;80.10;100432.41;5000471;28;20426;-51
2022/04/29 06:03:24;;;;;;;44.92;18.95;;;;;;;8.79;77.58;100428.94;4996671;28;20429;-52
2022/04/29 06:05:49;;;;;;;45.90;20.27;;;;;;;9.17;76.12;100431.06;4989747;28;20058;-50
2022/04/29 06:08:15;;;;;;;38.92;19.08;;;;;;;9.63;74.64;100425.72;4995631;28;20076;-51
2022/04/29 06:10:40;;;;;;;37.50;16.90;;;;;;;9.81;75.08;100432.28;4990740;28;20046;-51
2022/04/29 06:13:08;;;;;;;40.90;16.80;;;;;;;9.92;74.66;100431.66;4993993;28;20084;-53
2022/04/29 06:15:34;;;;;;;32.20;16.50;;;;;;;10.22;72.92;100431.19;4990466;28;20046;-52
2022/04/29 06:17:59;;;;;;;31.63;16.13;;;;;;;10.55;71.83;100428.41;4995817;28;20041;-50
2022/04/29 06:20:25;;;;;;;29.20;16.15;;;;;;;10.82;70.69;100425.63;4995368;28;20042;-52
2022/04/29 06:22:50;;;;;;;34.13;15.98;;;;;;;11.18;71.25;100424.97;4989981;28;20080;-52
2022/04/29 06:25:18;;;;;;;32.00;16.17;;;;;;;11.34;69.47;100416.41;4992935;28;20042;-53
2022/04/29 06:27:44;;;;;;;42.42;16.67;;;;;;;11.40;69.10;100418.19;4993467;28;20401;-53
2022/04/29 06:30:10;;;;;;;40.20;18.30;;;;;;;11.52;68.13;100425.56;4991224;28;20090;-52
2022/04/29 06:32:35;;;;;;;32.92;16.42;;;;;;;11.49;68.76;100426.81;4992367;28;20050;-53
2022/04/29 06:35:01;;;;;;;28.52;16.10;;;;;;;11.50;70.78;100430.31;4992551;28;20042;-50
2022/04/29 06:37:27;;;;;;;40.55;17.00;;;;;;;11.33;71.66;100430.88;4990033;28;20018;-50
2022/04/29 06:39:52;;;;;;;38.47;18.20;;;;;;;11.08;72.53;100433.50;4996863;28;20033;-50
2022/04/29 06:42:17;;;;;;;31.08;16.92;;;;;;;10.76;73.61;100424.63;4995837;28;20050;-54
2022/04/29 06:44:43;;;;;;;36.17;16.48;;;;;;;10.83;75.30;100427.25;4996422;28;20026;-51
2022/04/29 06:47:08;;;;;;;41.40;18.00;;;;;;;10.19;76.98;100434.31;4992093;28;20540;-51
2022/04/29 06:49:34;;;;;;;43.35;17.85;;;;;;;10.50;74.73;100439.78;4988222;28;20061;-51
2022/04/29 06:51:59;;;;;;;37.53;17.98;;;;;;;10.78;74.06;100433.25;4990797;28;20672;-52
2022/04/29 06:54:24;;;;;;;37.63;17.33;;;;;;;10.69;74.12;100440.72;4987719;28;20365;-52
2022/04/29 06:56:50;;;;;;;38.65;17.73;;;;;;;10.83;73.84;100436.13;4988461;28;20101;-51
2022/04/29 06:59:16;;;;;;;49.08;19.00;;;;;;;10.75;73.79;100444.41;4984588;28;20080;-53
2022/04/29 07:01:42;;;;;;;45.08;19.48;;;;;;;10.68;72.62;100449.78;4989949;28;20053;-51
2022/04/29 07:04:07;;;;;;;41.97;19.27;;;;;;;10.99;71.11;100449.03;4987520;28;20421;-54
2022/04/29 07:06:33;;;;;;;50.65;19.10;;;;;;;11.00;72.38;100437.25;4991933;28;20512;-50
2022/04/29 07:08:58;;;;;;;47.92;18.90;;;;;;;10.78;73.12;100438.63;4988811;28;20038;-53
2022/04/29 07:11:25;;;;;;;38.63;17.60;;;;;;;10.69;73.26;100443.41;4987681;28;20053;-53
2022/04/29 07:13:52;;;;;;;39.22;18.65;;;;;;;10.62;74.81;100439.94;4998960;28;20023;-50
2022/04/29 07:16:17;;;;;;;40.30;18.40;;;;;;;10.78;74.48;100449.34;4991248;28;20146;-52
2022/04/29 07:18:43;;;;;;;48.72;18.52;;;;;;;10.72;74.70;100445.66;4985623;28;20037;-50
2022/04/29 07:21:09;;;;;;;49.80;20.50;;;;;;;10.68;75.54;100444.44;4997194;28;20045;-55
2022/04/29 07:23:34;;;;;;;70.78;19.02;;;;;;;10.67;75.72;100447.34;4997763;28;20033;-53
2022/04/29 07:26:00;;;;;;;56.80;19.27;;;;;;;10.80;75.46;100441.91;4999919;28;20046;-52
2022/04/29 07:28:25;;;;;;;97.35;21.13;;;;;;;10.87;75.83;100448.06;4996929;28;20258;-49
2022/04/29 07:30:52;;;;;;;86.88;24.38;;;;;;;10.78;75.64;100442.16;4998456;28;20042;-50
2022/04/29 07:33:18;;;;;;;85.75;21.15;;;;;;;10.87;76.36;100442.69;4998937;28;20056;-52
2022/04/29 07:43:56;;;;;;;71.50;20.50;;;;;;;10.97;76.75;100442.25;4996596;28;20045;-51
2022/04/29 07:46:21;;;;;;;106.10;22.40;;;;;;;11.09;76.47;100439.69;4993790;28;20045;-50
2022/04/29 07:48:48;;;;;;;75.50;20.30;;;;;;;11.11;76.22;100443.81;4995644;28;20033;-53
2022/04/29 07:51:13;;;;;;;107.82;21.77;;;;;;;10.78;77.60;100438.63;5003630;28;20385;-50
2022/04/29 07:53:38;;;;;;;71.75;20.98;;;;;;;10.70;78.08;100437.00;4993342;28;20559;-53
2022/04/29 07:56:05;;;;;;;78.82;21.55;;;;;;;11.08;76.00;100436.16;4992450;28;20120;-54
2022/04/29 07:58:31;;;;;;;65.55;21.77;;;;;;;11.43;75.87;100436.56;4988906;28;20427;-53
2022/04/29 08:00:57;;;;;;;75.63;21.42;;;;;;;11.53;75.66;100435.22;4995385;28;20405;-52
2022/04/29 08:03:23;;;;;;;66.80;20.95;;;;;;;11.79;74.26;100437.69;4997573;28;20030;-51
2022/04/29 08:05:49;;;;;;;76.10;21.58;;;;;;;11.71;73.39;100438.00;4988703;28;20053;-51
2022/04/29 08:08:15;;;;;;;81.72;20.45;;;;;;;11.82;73.27;100439.94;4990723;28;20113;-53
2022/04/29 08:10:41;;;;;;;61.55;21.38;;;;;;;12.14;71.33;100447.94;4993533;28;20504;-52
2022/04/29 08:13:06;;;;;;;76.88;19.45;;;;;;;12.80;70.23;100450.88;4991606;28;20104;-50
2022/04/29 08:15:32;;;;;;;63.10;21.00;;;;;;;13.10;69.73;100449.03;4984469;28;20419;-50
2022/04/29 08:17:57;;;;;;;58.97;20.33;;;;;;;12.92;69.21;100451.75;4997744;28;20045;-53
2022/04/29 08:20:23;;;;;;;62.35;20.27;;;;;;;13.56;68.32;100444.81;4993222;28;20564;-50
2022/04/29 08:22:48;;;;;;;59.58;20.92;;;;;;;13.72;66.85;100442.47;4993692;28;20030;-52
2022/04/29 08:25:18;;;;;;;48.58;18.92;;;;;;;13.91;65.82;100444.00;4988776;28;20487;-50
2022/04/29 08:27:44;;;;;;;53.13;18.30;;;;;;;13.40;67.28;100444.66;4999703;28;20053;-53
2022/04/29 08:30:10;;;;;;;58.65;19.80;;;;;;;13.25;66.90;100431.59;4987687;28;20454;-52
2022/04/29 08:32:43;;;;;;;61.25;20.95;;;;;;;14.08;64.78;100433.34;4991029;28;20466;-52
2022/04/29 08:35:09;;;;;;;63.80;19.60;;;;;;;13.96;66.00;100437.94;4996765;28;20049;-53
2022/04/29 08:37:41;;;;;;;75.60;20.35;;;;;;;14.18;64.01;100435.44;4994667;28;20469;-53
2022/04/29 08:40:07;;;;;;;56.47;17.92;;;;;;;14.29;63.67;100428.38;5005821;28;20042;-53
2022/04/29 08:42:37;;;;;;;48.17;18.58;;;;;;;14.53;62.54;100431.84;4996009;28;20022;-51
2022/04/29 08:45:09;;;;;;;41.22;17.65;;;;;;;14.24;62.77;100429.09;4992499;28;20448;-51
2022/04/29 08:47:36;;;;;;;54.67;17.67;;;;;;;14.05;63.60;100433.78;4997911;28;20477;-51
2022/04/29 08:50:02;;;;;;;49.25;23.42;;;;;;;13.85;63.69;100431.47;4990965;28;20088;-51
2022/04/29 08:52:28;;;;;;;50.00;16.45;;;;;;;13.69;62.72;100437.56;4988027;28;20054;-51
2022/04/29 09:00:23;;;;;;;65.88;22.50;;;;;;;14.03;62.26;100435.94;4999095;28;20057;-53
2022/04/29 09:02:48;;;;;;;158.30;67.10;;;;;;;14.02;62.96;100437.78;4999510;28;20373;-51
2022/04/29 09:05:13;;;;;;;63.00;26.40;;;;;;;13.80;62.87;100439.44;4995691;28;20544;-51
2022/04/29 09:08:01;;;;;;;43.08;19.35;;;;;;;13.69;64.76;100434.88;4991089;28;20392;-53
2022/04/29 09:10:34;;;;;;;64.50;22.98;;;;;;;13.98;63.22;100442.03;4993618;28;20437;-52
2022/04/29 09:13:22;;;;;;;48.50;16.42;;;;;;;14.10;62.90;100443.88;4998084;28;20076;-51
2022/04/29 09:15:57;;;;;;;83.75;31.17;;;;;;;14.50;61.31;100440.41;4998238;28;20127;-53
2022/04/29 09:18:28;;;;;;;55.80;19.88;;;;;;;14.29;62.03;100431.09;4991557;28;20040;-53
2022/04/29 09:20:54;;;;;;;37.85;16.35;;;;;;;14.67;59.66;100436.75;4998281;28;20050;-52
2022/04/29 09:23:29;;;;;;;57.78;19.88;;;;;;;15.06;58.25;100428.03;4995805;28;20052;-52
2022/04/29 09:25:56;;;;;;;49.05;18.83;;;;;;;15.51;57.52;100422.56;4994900;28;20046;-53
2022/04/29 09:28:22;;;;;;;48.10;17.05;;;;;;;15.30;57.19;100426.00;5002488;28;20038;-53
2022/04/29 09:30:48;;;;;;;42.33;15.40;;;;;;;15.61;56.83;100421.91;4981042;28;20515;-54
2022/04/29 09:33:21;;;;;;;36.72;16.63;;;;;;;14.77;57.37;100422.63;5005743;28;20104;-50
2022/04/29 09:35:49;;;;;;;41.42;16.08;;;;;;;15.21;58.12;100419.38;4998182;28;20038;-50
2022/04/29 09:40:59;;;;;;;34.78;14.52;;;;;;;15.50;57.16;100420.09;4999137;28;20065;-53
2022/04/29 09:43:37;;;;;;;28.25;13.57;;;;;;;16.30;53.56;100412.63;4999320;28;20046;-51
2022/04/29 09:46:09;;;;;;;48.03;15.32;;;;;;;16.15;52.95;100414.09;4999810;28;20457;-50
2022/04/29 09:48:51;;;;;;;32.05;14.10;;;;;;;16.70;52.75;100411.47;4996352;28;20060;-53
2022/04/29 09:51:37;;;;;;;37.05;14.70;;;;;;;16.06;53.03;100409.34;5014108;28;20038;-54
2022/04/29 09:54:16;;;;;;;35.15;14.43;;;;;;;16.30;52.18;100407.22;4995482;28;20050;-54
2022/04/29 09:56:45;;;;;;;40.47;15.80;;;;;;;16.67;51.84;100403.88;5008455;28;20488;-53
2022/04/29 09:59:11;;;;;;;42.40;15.73;;;;;;;16.49;52.47;100403.13;4993876;28;20038;-54
2022/04/29 10:01:36;;;;;;;37.35;15.57;;;;;;;15.15;55.15;100396.88;4992290;28;20496;-54
2022/04/29 10:04:02;;;;;;;44.20;14.60;;;;;;;16.14;54.33;100396.19;4992348;28;20034;-52
2022/04/29 10:06:28;;;;;;;34.13;14.48;;;;;;;17.19;52.78;100398.72;4992940;28;20722;-52
2022/04/29 10:08:54;;;;;;;42.70;14.60;;;;;;;16.16;53.66;100395.97;4979939;28;20037;-50
2022/04/29 10:11:21;;;;;;;37.38;14.43;;;;;;;16.83;52.66;100394.06;4998280;28;20034;-51
2022/04/29 10:13:47;;;;;;;38.22;15.50;;;;;;;17.15;52.44;100394.09;5005141;28;20037;-51
2022/04/29 10:16:12;;;;;;;40.38;13.82;;;;;;;16.96;52.31;100399.06;5013592;28;20404;-50
2022/04/29 10:21:38;;;;;;;39.67;14.70;;;;;;;17.17;52.74;100394.63;5003590;28;20500;-52
2022/04/29 10:24:04;;;;;;;39.80;13.27;;;;;;;17.18;52.22;100385.44;4994346;28;20049;-52
2022/04/29 10:26:29;;;;;;;38.83;14.25;;;;;;;16.81;52.35;100391.59;5000259;28;20041;-52
2022/04/29 10:28:55;;;;;;;45.22;14.63;;;;;;;16.97;52.11;100384.44;4993191;28;20026;-50
2022/04/29 10:31:21;;;;;;;54.08;14.80;;;;;;;17.32;51.46;100386.63;5000058;28;20120;-53
2022/04/29 10:33:47;;;;;;;43.33;15.40;;;;;;;16.33;54.28;100379.69;4996937;28;20040;-52
2022/04/29 10:36:17;;;;;;;34.80;14.07;;;;;;;17.52;50.92;100390.56;5000663;28;20042;-50
2022/04/29 10:38:46;;;;;;;33.50;14.00;;;;;;;16.34;53.75;100379.41;5001128;28;20036;-53
2022/04/29 10:41:21;;;;;;;44.72;14.98;;;;;;;16.97;51.13;100379.84;4992685;28;20050;-53
2022/04/29 10:43:50;;;;;;;48.03;14.73;;;;;;;17.26;52.79;100382.25;5000619;28;20112;-54
2022/04/29 10:46:30;;;;;;;39.53;13.90;;;;;;;18.16;49.89;100368.75;5002532;28;20492;-52
2022/04/29 10:48:56;;;;;;;36.65;14.15;;;;;;;17.98;49.03;100366.50;5001959;28;20042;-52
2022/04/29 10:51:27;;;;;;;36.67;13.77;;;;;;;18.56;49.33;100369.97;4997752;28;20034;-52
2022/04/29 10:53:55;;;;;;;30.00;13.45;;;;;;;18.51;48.26;100356.38;5001652;28;20026;-55
2022/04/29 10:56:27;;;;;;;26.27;12.80;;;;;;;19.48;46.44;100364.63;4997001;28;20042;-52
2022/04/29 10:58:53;;;;;;;23.90;12.80;;;;;;;19.46;44.70;100364.09;5002835;28;20077;-50
2022/04/29 11:01:24;;;;;;;28.33;13.07;;;;;;;19.94;44.70;100364.53;5006026;28;20724;-52
2022/04/29 11:03:50;;;;;;;33.33;12.32;;;;;;;19.62;44.36;100351.28;5008225;28;20037;-52
2022/04/29 11:06:15;;;;;;;26.77;12.40;;;;;;;19.45;45.27;100359.75;5002347;28;20128;-53
2022/04/29 11:08:41;;;;;;;27.35;11.93;;;;;;;19.63;43.27;100358.34;5000171;28;20475;-52
2022/04/29 11:11:07;;;;;;;25.33;11.45;;;;;;;19.13;44.39;100355.41;5014709;28;20041;-51
2022/04/29 11:13:43;;;;;;;27.88;11.63;;;;;;;18.38;45.76;100354.19;5003137;28;20643;-53
2022/04/29 11:16:12;;;;;;;30.48;12.60;;;;;;;18.95;45.39;100353.25;4998030;28;20076;-51
2022/04/29 11:18:37;;;;;;;28.15;11.13;;;;;;;19.65;42.61;100349.94;4992508;28;20022;-50
2022/04/29 11:26:44;;;;;;;24.75;11.70;;;;;;;18.91;46.13;100341.28;5000487;28;20411;-52
2022/04/29 11:29:10;;;;;;;26.38;12.48;;;;;;;18.66;46.00;100342.84;4997155;28;20428;-50
2022/04/29 11:31:36;;;;;;;29.58;12.43;;;;;;;18.19;47.43;100332.13;4998199;28;20415;-50
2022/04/29 11:34:08;;;;;;;25.30;13.25;;;;;;;18.44;47.19;100334.09;4998983;28;20477;-50
2022/04/29 11:36:34;;;;;;;27.50;12.43;;;;;;;18.45;47.48;100338.47;4995631;28;20109;-52
2022/04/29 11:39:00;;;;;;;23.77;12.63;;;;;;;18.26;46.97;100329.97;4998945;28;20038;-52
2022/04/29 11:41:27;;;;;;;33.00;12.50;;;;;;;17.86;47.92;100332.25;4989632;28;20042;-54
2022/04/29 11:43:53;;;;;;;30.27;12.30;;;;;;;18.68;46.42;100327.09;5004870;28;20048;-54
2022/04/29 11:46:19;;;;;;;36.42;12.20;;;;;;;18.86;46.62;100327.69;4994541;28;20481;-54
2022/04/29 11:48:52;;;;;;;37.05;12.02;;;;;;;19.05;45.66;100317.91;5006417;28;20038;-53